Panola, South Carolina
Current Conditions -  °F | °C
As of 8:58 AM on Sunday 21 Dec 2014 (Local Time) from KSSC Reporting Station
Broken Clouds Broken Clouds  
Wind Chill: 37°   Ceiling: 3700
Heat Index: 42°   Visibility: 10mi
Dew Point: 35°   Wind: 8mph
Humidity: 76%   Direction: 30°NNE
Pressure: 30.27"   Gusts: NA
Location:  33.7445°N, 80.5249°W
Report Text: KSSC 211358Z AUTO 03007KT 10SM BKN037 06/02 A3027 RMK AO2 SLP253 T00560017 $
Loading
Personal Weather Stations






























Interactive Weather Map New forecast layout! Learn more

10-Day Weather Forecast

Advertisements
Track Severe Weather on mobile